Time;durP1;ratioP1;P1;durP2;ratioP2;P2;SDS_P1;SDS_P2;PMS_P1;PMS_P2;Temp;Humidity;BMP_temperature;BMP_pressure;BME280_temperature;BME280_humidity;BME280_pressure;Samples;Min_cycle;Max_cycle;Signal;HPM_P1;HPM_P2
2021/10/22 00:01:00;;;;;;;;;6.25;6.25;;;;;7.56;76.93;101758.41;5033918;28;45384;-71
2021/10/22 00:03:25;;;;;;;;;9.00;6.75;;;;;7.59;77.37;101769.72;5033668;28;45493;-71
2021/10/22 00:05:51;;;;;;;;;9.00;7.00;;;;;7.52;76.90;101764.59;5032645;28;45469;-71
2021/10/22 00:08:17;;;;;;;;;6.75;6.75;;;;;7.54;77.17;101783.75;5033333;28;49564;-71
2021/10/22 00:10:43;;;;;;;;;15.25;7.25;;;;;7.51;77.27;101789.00;5015915;28;46230;-71
2021/10/22 00:13:09;;;;;;;;;10.75;9.50;;;;;7.46;77.62;101788.19;5033059;28;45378;-71
2021/10/22 00:15:34;;;;;;;;;7.75;7.00;;;;;7.43;77.54;101790.88;5032896;28;45603;-71
2021/10/22 00:18:00;;;;;;;;;7.50;7.50;;;;;7.31;77.58;101787.53;5032822;28;46261;-71
2021/10/22 00:20:25;;;;;;;;;7.50;7.50;;;;;7.37;77.68;101788.34;5032830;28;57593;-71
2021/10/22 00:22:51;;;;;;;;;7.50;7.00;;;;;7.37;77.46;101794.44;5032875;28;45474;-71
2021/10/22 00:25:16;;;;;;;;;7.75;7.00;;;;;7.36;77.79;101789.19;5034361;28;45376;-71
2021/10/22 00:27:41;;;;;;;;;6.00;6.00;;;;;7.26;77.36;101778.03;5022045;28;46100;-71
2021/10/22 00:30:07;;;;;;;;;9.67;9.67;;;;;7.09;77.43;101759.03;5028922;28;53040;-71
2021/10/22 00:32:33;;;;;;;;;9.75;7.00;;;;;7.27;77.91;101795.44;5032296;28;45424;-71
2021/10/22 00:34:58;;;;;;;;;7.25;7.00;;;;;7.24;77.72;101787.59;5033534;28;45575;-71
2021/10/22 00:37:24;;;;;;;;;7.00;7.00;;;;;7.17;77.64;101776.38;5032109;28;46191;-71
2021/10/22 00:39:50;;;;;;;;;6.00;6.00;;;;;7.27;77.65;101795.44;5036327;28;45368;-71
2021/10/22 00:42:17;;;;;;;;;6.00;6.00;;;;;7.25;77.45;101792.81;5039673;28;45447;-71
2021/10/22 00:44:43;;;;;;;;;10.50;7.00;;;;;7.25;77.98;101791.94;5039956;28;45361;-71
2021/10/22 00:47:09;;;;;;;;;9.50;7.00;;;;;7.26;77.94;101789.34;5038876;28;46369;-71
2021/10/22 00:49:35;;;;;;;;;6.50;6.50;;;;;7.18;77.77;101785.06;5039750;28;45525;-71
2021/10/22 00:52:01;;;;;;;;;9.00;7.00;;;;;7.20;78.10;101785.91;5039787;28;45482;-70
2021/10/22 00:54:26;;;;;;;;;11.00;6.00;;;;;7.18;78.15;101796.41;5030005;28;45513;-71
2021/10/22 00:56:52;;;;;;;;;6.25;5.50;;;;;7.17;78.14;101797.28;5035934;28;45399;-71
2021/10/22 00:59:17;;;;;;;;;10.00;7.50;;;;;7.17;78.20;101794.66;5020303;28;45475;-71
2021/10/22 01:01:43;;;;;;;;;10.00;9.00;;;;;7.16;78.00;101795.56;5039184;28;45474;-70
2021/10/22 01:04:08;;;;;;;;;8.25;6.50;;;;;7.17;78.30;101799.03;5039631;28;45233;-70
2021/10/22 01:06:41;;;;;;;;;8.75;6.00;;;;;7.07;78.06;101790.44;5038213;28;45530;-70
2021/10/22 01:09:09;;;;;;;;;9.50;6.75;;;;;7.13;78.35;101802.56;5034930;28;45663;-70
2021/10/22 01:11:35;;;;;;;;;8.00;7.25;;;;;7.07;77.85;101791.28;5039144;28;45388;-71
2021/10/22 01:14:06;;;;;;;;;7.00;7.00;;;;;7.08;77.95;101802.63;5040299;28;45565;-71
2021/10/22 01:16:32;;;;;;;;;9.75;6.75;;;;;6.94;78.48;101787.09;5039685;28;46950;-71
2021/10/22 01:18:57;;;;;;;;;11.00;7.00;;;;;7.06;78.36;101807.00;5036624;28;45745;-70
2021/10/22 01:21:23;;;;;;;;;7.50;6.25;;;;;7.04;78.56;101807.00;5039233;28;45431;-71
2021/10/22 01:23:48;;;;;;;;;10.50;7.50;;;;;6.97;78.09;101800.13;5039457;28;45450;-70
2021/10/22 01:26:14;;;;;;;;;9.75;7.00;;;;;7.03;78.51;101818.34;5037911;28;45360;-71
2021/10/22 01:28:40;;;;;;;;;11.50;10.00;;;;;6.97;78.23;101812.31;5039028;28;45460;-71
2021/10/22 01:31:05;;;;;;;;;7.00;7.00;;;;;7.02;78.36;101823.59;5040015;28;45604;-71
2021/10/22 01:33:32;;;;;;;;;14.25;7.50;;;;;6.95;78.15;101807.13;5039040;28;45429;-71
2021/10/22 01:35:58;;;;;;;;;11.25;9.25;;;;;6.98;77.94;101808.81;5039039;28;47181;-71
2021/10/22 01:38:25;;;;;;;;;11.50;10.00;;;;;6.97;78.04;101817.56;5038865;28;45693;-71
2021/10/22 01:40:55;;;;;;;;;14.00;10.50;;;;;6.91;78.23;101813.25;5038110;28;45537;-71
2021/10/22 01:43:22;;;;;;;;;12.25;12.25;;;;;6.90;78.21;101811.53;5038835;28;45448;-71
2021/10/22 01:45:49;;;;;;;;;13.00;11.50;;;;;6.89;78.30;101811.53;5039337;28;45784;-71
2021/10/22 01:48:15;;;;;;;;;10.50;10.50;;;;;6.86;78.60;101815.06;5038496;28;45516;-71
2021/10/22 01:50:41;;;;;;;;;15.50;10.50;;;;;6.76;78.27;101800.34;5039110;28;45495;-71
2021/10/22 01:53:08;;;;;;;;;10.50;10.50;;;;;6.76;78.73;101800.34;5034555;28;45316;-71
2021/10/22 01:55:34;;;;;;;;;11.00;10.75;;;;;6.84;78.73;101816.81;5018574;28;46206;-70
2021/10/22 01:58:00;;;;;;;;;12.75;11.00;;;;;6.84;78.58;101824.66;5030593;28;45420;-71
2021/10/22 02:00:25;;;;;;;;;21.50;14.75;;;;;6.76;78.50;101810.81;5035360;28;45308;-70
2021/10/22 02:02:51;;;;;;;;;12.50;12.50;;;;;6.80;78.28;101821.22;5035347;28;45498;-71
2021/10/22 02:05:16;;;;;;;;;17.25;14.00;;;;;6.78;78.06;101825.56;5036206;28;45522;-70
2021/10/22 02:07:41;;;;;;;;;15.00;11.00;;;;;6.78;78.57;101820.34;5036210;28;45341;-71
2021/10/22 02:10:08;;;;;;;;;20.00;14.50;;;;;6.68;78.45;101800.44;5035696;28;45513;-71
2021/10/22 02:12:34;;;;;;;;;12.75;11.00;;;;;6.77;78.48;101815.13;5033718;28;45356;-70
2021/10/22 02:14:59;;;;;;;;;16.25;11.00;;;;;6.71;78.52;101804.75;5035071;28;45517;-71
2021/10/22 02:17:24;;;;;;;;;13.00;10.75;;;;;6.76;78.75;101810.81;5036267;28;45549;-70
2021/10/22 02:19:50;;;;;;;;;18.50;14.00;;;;;6.69;78.52;101809.13;5035637;28;45412;-70
2021/10/22 02:22:16;;;;;;;;;15.00;12.75;;;;;6.61;78.54;101810.94;5035126;28;45410;-71
2021/10/22 02:24:41;;;;;;;;;16.00;11.50;;;;;6.64;78.54;101817.03;5035541;28;45448;-71
2021/10/22 02:27:07;;;;;;;;;10.75;10.25;;;;;6.70;78.70;101827.41;5035523;28;45556;-71
2021/10/22 02:29:33;;;;;;;;;15.00;11.00;;;;;6.71;78.88;101825.66;5039091;28;45440;-71
2021/10/22 02:31:58;;;;;;;;;16.25;14.75;;;;;6.69;78.50;101825.69;5036927;28;45475;-70
2021/10/22 02:34:23;;;;;;;;;10.00;10.00;;;;;6.67;78.77;101816.97;5020074;28;47222;-71
2021/10/22 02:36:49;;;;;;;;;10.00;10.00;;;;;6.64;78.80;101805.72;5044063;28;45632;-70
2021/10/22 02:39:16;;;;;;;;;13.00;10.00;;;;;6.63;78.81;101819.63;5038373;28;47113;-71
2021/10/22 02:41:42;;;;;;;;;12.00;11.25;;;;;6.54;78.86;101808.41;5037126;28;45470;-70
2021/10/22 02:44:08;;;;;;;;;14.00;11.75;;;;;6.59;78.76;101820.56;5030318;28;47855;-71
2021/10/22 02:46:33;;;;;;;;;13.75;10.75;;;;;6.59;78.90;101820.56;5037406;28;46040;-70
2021/10/22 02:48:58;;;;;;;;;14.00;11.00;;;;;6.58;78.77;101813.56;5038565;28;45475;-70
2021/10/22 02:51:24;;;;;;;;;13.00;11.25;;;;;6.56;79.01;101820.56;5017229;28;45387;-70
2021/10/22 02:53:49;;;;;;;;;14.75;13.25;;;;;6.50;78.82;101808.44;5035043;28;45731;-71
2021/10/22 02:56:14;;;;;;;;;18.33;14.67;;;;;6.53;78.53;101818.88;5034098;28;50458;-70
2021/10/22 02:58:40;;;;;;;;;17.33;13.33;;;;;6.50;78.49;101818.88;5023166;28;54135;-70
2021/10/22 03:01:05;;;;;;;;;12.50;11.25;;;;;6.49;78.77;101825.00;5034756;28;45464;-70
2021/10/22 03:03:31;;;;;;;;;11.25;10.25;;;;;6.44;78.71;101830.25;5030994;28;45996;-70
2021/10/22 03:05:56;;;;;;;;;11.50;11.00;;;;;6.43;78.98;101819.81;5034675;28;45368;-70
2021/10/22 03:08:21;;;;;;;;;10.00;8.00;;;;;6.45;78.80;101825.88;5033948;28;45533;-70
2021/10/22 03:10:47;;;;;;;;;14.00;11.00;;;;;6.46;79.02;101825.88;5034501;28;47059;-70
2021/10/22 03:13:12;;;;;;;;;16.00;12.50;;;;;6.45;78.67;101828.50;5033902;28;45799;-71
2021/10/22 03:15:37;;;;;;;;;18.33;13.33;;;;;6.45;78.80;101831.09;5034469;28;45817;-70
2021/10/22 03:18:03;;;;;;;;;17.00;11.67;;;;;6.40;78.60;101810.25;5034699;28;45371;-70
2021/10/22 03:20:28;;;;;;;;;11.50;9.00;;;;;6.42;79.29;101824.19;5034027;28;45495;-71
2021/10/22 03:22:53;;;;;;;;;14.00;12.75;;;;;6.43;78.71;101832.88;5034503;28;46209;-70
2021/10/22 03:25:19;;;;;;;;;14.75;12.75;;;;;6.41;79.43;101832.88;5035055;28;48536;-70
2021/10/22 03:27:45;;;;;;;;;19.50;11.50;;;;;6.38;79.13;101822.47;5026405;28;45747;-71
2021/10/22 03:30:11;;;;;;;;;13.75;11.00;;;;;6.42;79.56;101834.63;5033133;28;45544;-70
2021/10/22 03:32:37;;;;;;;;;12.50;9.75;;;;;6.37;79.23;101822.47;5033514;28;45595;-70
2021/10/22 03:35:05;;;;;;;;;12.50;10.75;;;;;6.41;78.89;101834.63;5034319;28;45807;-70
2021/10/22 03:37:30;;;;;;;;;16.75;13.75;;;;;6.16;79.29;101800.91;5035019;28;45468;-70
2021/10/22 03:39:55;;;;;;;;;12.75;10.50;;;;;6.34;79.44;101822.50;5034719;28;45491;-70
2021/10/22 03:42:21;;;;;;;;;13.75;10.25;;;;;6.33;78.98;101826.00;5033767;28;45596;-71
2021/10/22 03:44:46;;;;;;;;;14.00;13.50;;;;;6.29;79.16;101830.38;5034231;28;45465;-70
2021/10/22 03:47:12;;;;;;;;;14.25;9.75;;;;;6.31;79.02;101833.81;5033469;28;45540;-70
2021/10/22 03:49:38;;;;;;;;;17.50;11.25;;;;;6.27;78.70;101830.38;5034296;28;45396;-71
2021/10/22 03:52:04;;;;;;;;;9.25;9.00;;;;;6.10;79.13;101805.28;5034221;28;45525;-70
2021/10/22 03:54:29;;;;;;;;;12.50;12.00;;;;;6.18;79.19;101819.16;5034225;28;45462;-70
2021/10/22 03:56:54;;;;;;;;;13.00;10.75;;;;;5.91;78.99;101776.72;5033472;28;45416;-71
2021/10/22 03:59:20;;;;;;;;;16.50;13.50;;;;;6.17;78.89;101826.13;5033672;28;45501;-70
2021/10/22 04:01:45;;;;;;;;;16.00;13.25;;;;;6.24;78.70;101835.63;5032583;28;45915;-71
2021/10/22 04:04:12;;;;;;;;;13.00;12.25;;;;;6.18;78.94;101830.44;5033033;28;45533;-70
2021/10/22 04:06:37;;;;;;;;;8.75;8.75;;;;;6.14;78.62;101828.72;5033893;28;45491;-70
2021/10/22 04:09:03;;;;;;;;;13.00;10.25;;;;;6.18;78.70;101838.28;5008754;28;45511;-70
2021/10/22 04:11:28;;;;;;;;;10.00;10.00;;;;;6.14;79.05;101835.69;5025794;28;46253;-70
2021/10/22 04:13:54;;;;;;;;;13.75;9.50;;;;;6.12;78.82;101834.84;5032517;28;45514;-70
2021/10/22 04:16:19;;;;;;;;;13.75;10.00;;;;;6.12;79.10;101827.03;5033060;28;45293;-70
2021/10/22 04:18:44;;;;;;;;;11.00;9.75;;;;;6.09;78.96;101834.88;5033615;28;48130;-70
2021/10/22 04:21:10;;;;;;;;;7.50;5.50;;;;;6.12;79.04;101845.28;5033090;28;46933;-70
2021/10/22 04:23:35;;;;;;;;;17.50;13.50;;;;;6.09;79.10;101847.91;5036414;28;45438;-70
2021/10/22 04:26:01;;;;;;;;;16.00;12.75;;;;;6.12;79.16;101854.00;5033738;28;45324;-70
2021/10/22 04:28:27;;;;;;;;;11.00;10.25;;;;;6.03;79.30;101837.53;5033685;28;45355;-70
2021/10/22 04:30:52;;;;;;;;;15.50;10.50;;;;;6.10;79.19;101853.13;5038584;28;46752;-70
2021/10/22 04:33:17;;;;;;;;;10.75;9.50;;;;;6.08;79.43;101849.66;5036149;28;45447;-70
2021/10/22 04:35:43;;;;;;;;;13.50;11.25;;;;;6.02;79.52;101849.69;5038980;28;45407;-70
2021/10/22 04:40:54;;;;;;;;;14.25;12.50;;;;;6.08;79.29;101864.44;5037666;28;45507;-70
2021/10/22 04:43:20;;;;;;;;;17.00;11.75;;;;;5.99;79.59;101854.94;5033842;28;45865;-71
2021/10/22 04:45:49;;;;;;;;;13.50;10.50;;;;;5.99;79.39;101862.75;5034202;28;45379;-71
2021/10/22 04:48:15;;;;;;;;;12.00;12.00;;;;;6.03;79.31;101876.66;5015917;28;45563;-71
2021/10/22 04:50:52;;;;;;;;;17.75;12.75;;;;;6.00;79.54;101880.13;5033590;28;45420;-71
2021/10/22 04:53:22;;;;;;;;;13.75;13.00;;;;;5.94;79.13;101870.59;5033410;28;45808;-71
2021/10/22 04:55:47;;;;;;;;;13.00;13.00;;;;;5.90;79.51;101871.50;5017891;28;45371;-71
2021/10/22 04:58:13;;;;;;;;;14.33;12.00;;;;;5.95;79.32;101885.41;5033996;28;45369;-70
2021/10/22 05:00:38;;;;;;;;;15.25;12.75;;;;;5.90;79.06;101871.50;5038083;28;45846;-71
2021/10/22 05:03:04;;;;;;;;;16.00;12.75;;;;;5.86;79.28;101872.38;5032923;28;45765;-71
2021/10/22 05:05:29;;;;;;;;;14.00;11.67;;;;;5.93;79.69;101887.16;5035727;28;45490;-70
2021/10/22 05:07:54;;;;;;;;;14.75;13.75;;;;;5.92;79.74;101877.59;5032731;28;45501;-71
2021/10/22 05:10:20;;;;;;;;;16.25;10.75;;;;;5.89;79.52;101868.88;5031965;28;46955;-71
2021/10/22 05:12:45;;;;;;;;;17.25;12.00;;;;;5.86;80.06;101869.75;5033087;28;45376;-71
2021/10/22 05:15:11;;;;;;;;;17.50;13.25;;;;;5.92;79.68;101882.81;5033211;28;45643;-71
2021/10/22 05:17:37;;;;;;;;;16.75;13.75;;;;;5.89;79.47;101871.47;5034791;28;45523;-71
2021/10/22 05:20:06;;;;;;;;;16.50;14.00;;;;;5.79;79.88;101870.66;5017251;28;46850;-71
2021/10/22 05:22:32;;;;;;;;;20.25;16.75;;;;;5.82;79.69;101877.63;5029702;28;45313;-71
2021/10/22 05:24:57;;;;;;;;;25.00;17.75;;;;;5.84;79.74;101883.69;5033386;28;45364;-71
2021/10/22 05:27:23;;;;;;;;;20.00;17.00;;;;;5.89;79.44;101893.22;5035373;28;45821;-71
2021/10/22 05:29:48;;;;;;;;;16.50;14.75;;;;;5.89;79.58;101892.34;5051146;28;46102;-70
2021/10/22 05:32:13;;;;;;;;;16.25;13.50;;;;;5.89;79.57;101893.22;5034670;28;46742;-71
2021/10/22 05:34:39;;;;;;;;;16.50;14.00;;;;;5.88;79.64;101893.22;5036359;28;45463;-71
2021/10/22 05:37:04;;;;;;;;;17.50;16.50;;;;;5.83;79.78;101884.56;5036880;28;45446;-71
2021/10/22 05:39:30;;;;;;;;;17.50;14.25;;;;;5.87;80.02;101892.38;5018713;28;47221;-71
2021/10/22 05:41:55;;;;;;;;;21.75;18.00;;;;;5.84;79.96;101889.75;5014754;28;45511;-71
2021/10/22 05:44:20;;;;;;;;;26.25;20.00;;;;;5.85;80.14;101886.31;5036243;28;45454;-71
2021/10/22 05:46:47;;;;;;;;;18.25;17.25;;;;;5.80;80.25;101879.38;5036199;28;45569;-71
2021/10/22 05:49:13;;;;;;;;;18.50;15.75;;;;;5.87;79.70;101892.38;5037422;28;45288;-71
2021/10/22 05:51:38;;;;;;;;;19.00;17.50;;;;;5.82;79.91;101881.09;5035122;28;45452;-71
2021/10/22 05:54:03;;;;;;;;;19.25;17.00;;;;;5.85;80.19;101891.50;5035979;28;45550;-71
2021/10/22 05:56:29;;;;;;;;;32.00;26.75;;;;;5.80;79.93;101885.44;5036066;28;45488;-71
2021/10/22 05:58:55;;;;;;;;;19.75;16.00;;;;;5.85;80.61;101893.25;5036520;28;46345;-71
2021/10/22 06:01:21;;;;;;;;;27.75;23.75;;;;;5.87;80.68;101896.72;5035405;28;45471;-69
2021/10/22 06:03:47;;;;;;;;;35.00;29.00;;;;;5.65;80.67;101859.44;5018333;28;45475;-72
2021/10/22 06:06:12;;;;;;;;;35.50;27.25;;;;;5.84;81.10;101878.47;5036274;28;45482;-70
2021/10/22 06:08:38;;;;;;;;;23.50;21.50;;;;;5.86;80.85;101877.59;5017786;28;47036;-71
2021/10/22 06:11:10;;;;;;;;;24.50;23.75;;;;;5.90;80.74;101892.38;5016473;28;45564;-72
2021/10/22 06:13:35;;;;;;;;;13.75;12.00;;;;;5.95;80.53;101897.56;5035775;28;45422;-71
2021/10/22 06:16:01;;;;;;;;;18.75;17.50;;;;;5.95;81.22;101900.16;5034192;28;45388;-71
2021/10/22 06:18:26;;;;;;;;;18.75;17.50;;;;;5.98;80.93;101903.63;5015910;28;48078;-71
2021/10/22 06:21:01;;;;;;;;;17.00;16.75;;;;;5.95;80.77;101903.69;5040196;28;45564;-71
2021/10/22 06:26:10;;;;;;;;;21.75;17.50;;;;;5.97;81.17;101904.53;5045611;28;45430;-71
2021/10/22 06:28:35;;;;;;;;;17.25;16.75;;;;;5.95;80.43;101903.69;5047851;28;45473;-71
2021/10/22 06:31:01;;;;;;;;;15.33;15.33;;;;;6.01;80.60;101913.22;5040881;28;47573;-71
2021/10/22 06:33:26;;;;;;;;;22.25;19.50;;;;;6.11;80.79;101929.66;5039548;28;45438;-71
2021/10/22 06:35:54;;;;;;;;;15.00;13.75;;;;;6.05;80.51;101908.81;5039482;28;45436;-71
2021/10/22 06:38:19;;;;;;;;;14.75;13.50;;;;;6.18;80.87;101923.56;5043369;28;45328;-71
2021/10/22 06:40:45;;;;;;;;;20.50;18.25;;;;;6.23;80.67;101933.09;5047338;28;45822;-71
2021/10/22 06:43:10;;;;;;;;;24.75;18.75;;;;;6.22;80.72;101923.53;5042538;28;45550;-71
2021/10/22 06:45:36;;;;;;;;;25.00;22.00;;;;;6.32;80.46;101933.88;5047294;28;45486;-71
2021/10/22 06:48:02;;;;;;;;;27.50;18.25;;;;;6.28;80.16;101935.69;5045280;28;45987;-71
2021/10/22 06:50:27;;;;;;;;;35.00;24.50;;;;;6.37;80.66;101951.28;5049627;28;45496;-72
2021/10/22 06:52:53;;;;;;;;;31.50;28.25;;;;;6.43;80.70;101959.09;5035053;28;45478;-70
2021/10/22 06:55:18;;;;;;;;;25.50;23.00;;;;;6.39;80.46;101951.28;5040904;28;45534;-71
2021/10/22 06:57:44;;;;;;;;;25.50;22.25;;;;;6.64;80.88;101965.91;5040248;28;46193;-71
2021/10/22 07:00:10;;;;;;;;;30.50;22.25;;;;;6.99;80.86;101962.13;5043565;28;45296;-71
2021/10/22 07:02:57;;;;;;;;;25.00;18.50;;;;;7.45;79.95;101967.81;5039818;28;45358;-71
2021/10/22 07:07:56;;;;;;;;;32.75;23.75;;;;;8.94;78.51;101968.50;5046243;28;45465;-71
2021/10/22 07:10:22;;;;;;;;;40.25;28.75;;;;;9.39;77.07;101970.28;5038063;28;45865;-71
2021/10/22 07:12:48;;;;;;;;;39.25;32.75;;;;;9.73;75.85;101974.91;5043893;28;45732;-72
2021/10/22 07:15:15;;;;;;;;;33.50;27.00;;;;;10.21;75.35;101974.78;5042767;28;45411;-71
2021/10/22 07:17:40;;;;;;;;;28.75;21.75;;;;;11.08;74.60;101969.28;5038122;28;47384;-71
2021/10/22 07:20:07;;;;;;;;;28.25;21.25;;;;;12.12;73.54;101959.41;5037167;28;45633;-72
2021/10/22 07:22:34;;;;;;;;;18.50;15.25;;;;;13.32;71.20;101970.50;5034771;28;45563;-72
2021/10/22 07:24:59;;;;;;;;;24.50;19.25;;;;;14.27;69.05;101958.22;5034004;28;45498;-71
2021/10/22 07:27:25;;;;;;;;;24.75;18.00;;;;;14.64;66.66;101967.38;5045501;28;46039;-71
2021/10/22 07:29:50;;;;;;;;;22.00;19.75;;;;;14.52;66.36;101974.91;5041906;28;45454;-71
2021/10/22 07:32:16;;;;;;;;;19.00;17.25;;;;;15.25;66.13;101978.94;5038319;28;45369;-71
2021/10/22 07:34:42;;;;;;;;;32.50;24.25;;;;;16.30;63.83;101964.53;5038768;28;45355;-71
2021/10/22 07:37:07;;;;;;;;;24.75;20.75;;;;;17.27;61.73;101965.97;5043138;28;45985;-72
2021/10/22 07:39:33;;;;;;;;;23.50;18.75;;;;;17.80;60.20;101978.28;5039893;28;45577;-72
2021/10/22 07:41:59;;;;;;;;;25.00;18.00;;;;;18.04;58.53;101984.09;5038796;28;45469;-72
2021/10/22 07:44:24;;;;;;;;;24.50;20.75;;;;;19.00;58.04;101974.19;5038905;28;45419;-72
2021/10/22 07:46:50;;;;;;;;;22.00;19.25;;;;;20.22;57.58;101981.84;5034680;28;46288;-72
2021/10/22 07:49:15;;;;;;;;;18.75;18.25;;;;;21.38;55.80;101985.84;5037077;28;45309;-72
2021/10/22 07:51:42;;;;;;;;;23.00;16.00;;;;;22.56;53.99;101983.69;5039957;28;45362;-72
2021/10/22 07:54:08;;;;;;;;;18.75;15.50;;;;;23.67;52.48;101980.59;5044248;28;45441;-72
2021/10/22 07:56:33;;;;;;;;;16.00;16.00;;;;;24.75;50.04;101980.00;5037351;28;45492;-72
2021/10/22 07:58:59;;;;;;;;;17.00;14.00;;;;;25.80;48.29;101994.38;5033058;28;45385;-72
2021/10/22 08:01:24;;;;;;;;;19.00;17.00;;;;;26.70;46.79;101986.28;5049935;28;45394;-72
2021/10/22 08:03:50;;;;;;;;;18.25;16.00;;;;;27.53;44.95;101992.94;5038426;28;45475;-72
2021/10/22 08:06:15;;;;;;;;;18.25;15.00;;;;;28.30;43.50;101987.22;5037689;28;45541;-72
2021/10/22 08:08:45;;;;;;;;;19.75;15.00;;;;;29.05;42.04;101995.13;5038402;28;45598;-72
2021/10/22 08:11:16;;;;;;;;;17.00;15.75;;;;;29.22;41.74;101994.25;5037435;28;45441;-72
2021/10/22 08:13:42;;;;;;;;;21.50;19.00;;;;;29.60;39.96;101995.75;5015987;28;48040;-72
2021/10/22 08:16:08;;;;;;;;;19.50;16.00;;;;;30.19;38.13;102009.44;5038414;28;46222;-72
2021/10/22 08:18:34;;;;;;;;;21.75;17.50;;;;;30.52;38.41;101995.97;5039827;28;45611;-72
2021/10/22 08:21:15;;;;;;;;;12.50;12.00;;;;;31.09;37.44;101967.03;5041830;28;45421;-72
2021/10/22 08:23:40;;;;;;;;;12.50;11.00;;;;;32.05;35.41;102004.22;5046737;28;45324;-72
2021/10/22 08:26:05;;;;;;;;;15.50;14.25;;;;;32.60;35.20;102016.91;5036069;28;51963;-72
2021/10/22 08:28:30;;;;;;;;;14.50;12.50;;;;;33.20;33.64;102018.88;5039175;28;45539;-73
2021/10/22 08:30:56;;;;;;;;;15.50;11.50;;;;;33.39;33.08;102019.38;5044574;28;45465;-72
2021/10/22 08:33:24;;;;;;;;;11.75;10.25;;;;;33.84;32.04;102015.69;5040285;28;45541;-72
2021/10/22 08:35:50;;;;;;;;;11.00;10.25;;;;;34.55;32.11;102026.91;5037538;28;45304;-72
2021/10/22 08:38:15;;;;;;;;;14.00;12.50;;;;;35.15;30.93;102031.13;5037581;28;46016;-73
2021/10/22 08:40:40;;;;;;;;;15.75;11.50;;;;;35.71;30.38;102030.28;5034612;28;45404;-73
2021/10/22 08:43:06;;;;;;;;;11.50;10.50;;;;;36.24;30.90;102027.88;5044051;28;45522;-72
2021/10/22 08:45:33;;;;;;;;;16.50;15.25;;;;;36.46;29.22;102023.13;5042730;28;45530;-72
2021/10/22 08:47:59;;;;;;;;;12.50;12.50;;;;;36.29;29.27;102033.56;5034988;28;45364;-72
2021/10/22 08:50:25;;;;;;;;;9.00;6.25;;;;;36.55;28.12;102036.44;5037124;28;45539;-73
2021/10/22 08:52:51;;;;;;;;;17.00;14.00;;;;;37.02;27.35;102037.38;5034109;28;45714;-73
2021/10/22 08:55:18;;;;;;;;;16.50;13.50;;;;;37.55;27.15;102037.38;5034876;28;46097;-72
2021/10/22 08:57:45;;;;;;;;;17.00;14.75;;;;;37.07;27.00;102034.03;5045531;28;45411;-72
2021/10/22 09:00:13;;;;;;;;;16.75;11.00;;;;;37.14;27.21;102031.28;5041119;28;45451;-72
2021/10/22 09:02:39;;;;;;;;;12.25;9.25;;;;;37.55;26.50;102034.66;5040697;28;45332;-72
2021/10/22 09:05:19;;;;;;;;;7.75;7.00;;;;;38.09;25.63;102033.47;5043743;28;46001;-72
2021/10/22 09:07:46;;;;;;;;;10.00;9.00;;;;;38.61;25.12;102039.78;5025421;28;45782;-72
2021/10/22 09:10:18;;;;;;;;;8.25;6.25;;;;;39.08;24.88;102039.47;5049454;28;45309;-72
2021/10/22 09:13:01;;;;;;;;;9.00;9.00;;;;;39.63;24.91;102042.44;5040847;28;45379;-73
2021/10/22 09:15:29;;;;;;;;;5.75;5.75;;;;;40.17;23.97;102047.09;5032271;28;45474;-72
2021/10/22 09:17:57;;;;;;;;;43.25;34.75;;;;;40.24;23.41;102051.69;5034775;28;45799;-72
2021/10/22 09:20:24;;;;;;;;;3.50;3.50;;;;;39.74;23.54;102046.34;5040344;28;45409;-72
2021/10/22 09:23:01;;;;;;;;;5.00;3.00;;;;;40.09;23.39;102049.31;5022270;28;45512;-73
2021/10/22 09:25:29;;;;;;;;;4.00;4.00;;;;;40.65;23.07;102057.28;5036126;28;45744;-72
2021/10/22 09:27:58;;;;;;;;;3.00;3.00;;;;;41.15;22.68;102064.38;5052061;28;45325;-72
2021/10/22 09:30:23;;;;;;;;;3.25;3.00;;;;;41.51;21.82;102071.66;5043123;28;45451;-72
2021/10/22 09:32:51;;;;;;;;;5.50;2.75;;;;;41.72;21.79;102071.03;5040628;28;45283;-73
2021/10/22 09:35:32;;;;;;;;;5.25;3.75;;;;;41.86;21.57;102073.53;5042233;28;45674;-71
2021/10/22 09:38:09;;;;;;;;;3.00;3.00;;;;;41.78;21.21;102077.53;5024006;28;45171;-72
2021/10/22 09:40:36;;;;;;;;;1.25;1.00;;;;;41.69;21.42;102076.19;5038255;28;45599;-72
2021/10/22 09:43:23;;;;;;;;;3.75;2.75;;;;;41.26;21.52;102074.59;5041861;28;45429;-73
2021/10/22 09:46:07;;;;;;;;;4.75;2.00;;;;;40.73;21.13;102074.56;5047500;28;46181;-72
2021/10/22 09:48:32;;;;;;;;;1.75;1.75;;;;;40.15;21.16;102085.06;5019340;28;45936;-72
2021/10/22 09:51:25;;;;;;;;;5.00;3.00;;;;;39.47;22.28;102089.72;5035156;28;45747;-72
2021/10/22 09:53:52;;;;;;;;;4.50;3.75;;;;;38.68;22.44;102071.84;5040779;28;45416;-72
2021/10/22 09:56:21;;;;;;;;;3.75;3.00;;;;;37.90;21.59;102083.75;5040939;28;45437;-73
2021/10/22 09:59:04;;;;;;;;;2.75;2.50;;;;;37.07;23.12;102081.44;5036698;28;45568;-72
2021/10/22 10:01:38;;;;;;;;;4.25;4.25;;;;;36.60;23.32;102082.38;5038203;28;45394;-72
2021/10/22 10:04:07;;;;;;;;;7.75;5.00;;;;;36.02;23.46;102090.94;5043754;28;45513;-73
2021/10/22 10:06:34;;;;;;;;;2.25;1.50;;;;;35.13;24.01;102087.00;5040252;28;48636;-72
2021/10/22 10:09:02;;;;;;;;;2.50;2.50;;;;;34.28;24.74;102086.59;5022864;28;45554;-73
2021/10/22 10:11:27;;;;;;;;;4.25;1.50;;;;;33.57;25.57;102084.47;5042814;28;45527;-72
2021/10/22 10:13:56;;;;;;;;;4.00;4.00;;;;;32.76;25.86;102083.16;5021910;28;45517;-72
2021/10/22 10:16:23;;;;;;;;;23.75;22.00;;;;;32.06;26.40;102082.09;5027819;28;46330;-71
2021/10/22 10:18:57;;;;;;;;;5.00;5.00;;;;;31.53;26.94;102093.53;5040045;28;45507;-72
2021/10/22 10:21:25;;;;;;;;;3.50;3.50;;;;;30.93;27.75;102087.34;5040371;28;45487;-71
2021/10/22 10:23:51;;;;;;;;;2.50;2.50;;;;;30.38;28.51;102089.69;5038010;28;45495;-73
2021/10/22 10:26:22;;;;;;;;;2.50;2.00;;;;;29.92;28.50;102089.09;5036904;28;45483;-71
2021/10/22 10:28:52;;;;;;;;;2.75;1.75;;;;;29.45;29.19;102088.56;5035655;28;45835;-71
2021/10/22 10:31:32;;;;;;;;;1.75;1.75;;;;;29.05;29.55;102092.56;5040375;28;45368;-73
2021/10/22 10:34:31;;;;;;;;;2.00;2.00;;;;;28.75;29.98;102091.88;5030641;28;45495;-70
2021/10/22 10:37:05;;;;;;;;;2.00;2.00;;;;;28.46;30.70;102094.78;5039317;28;45481;-73
2021/10/22 10:39:42;;;;;;;;;3.00;2.00;;;;;28.25;30.64;102096.81;5038653;28;45587;-72
2021/10/22 10:42:20;;;;;;;;;2.25;1.75;;;;;28.07;30.44;102102.97;5040297;28;45418;-73
2021/10/22 10:44:46;;;;;;;;;2.50;2.25;;;;;27.92;30.83;102099.03;5039959;28;45383;-72
2021/10/22 10:47:30;;;;;;;;;3.75;2.25;;;;;27.69;30.86;102101.19;5039517;28;45916;-73
2021/10/22 10:49:55;;;;;;;;;2.50;1.75;;;;;27.47;31.19;102102.38;5030479;28;45302;-73
2021/10/22 10:52:36;;;;;;;;;4.00;1.67;;;;;27.25;31.47;102099.94;5039356;28;45278;-73
2021/10/22 10:55:18;;;;;;;;;2.25;2.25;;;;;27.06;31.95;102100.75;5039191;28;45505;-73
2021/10/22 10:57:49;;;;;;;;;4.00;3.25;;;;;26.86;31.98;102089.09;5039781;28;45460;-73
2021/10/22 11:00:17;;;;;;;;;6.25;4.00;;;;;26.58;31.96;102097.97;5039134;28;45563;-73
2021/10/22 11:03:03;;;;;;;;;2.75;2.50;;;;;26.27;33.23;102098.81;5037947;28;45499;-73
2021/10/22 11:05:44;;;;;;;;;2.50;2.00;;;;;26.01;33.43;102094.84;5038594;28;45411;-73
2021/10/22 11:08:24;;;;;;;;;5.75;4.25;;;;;25.72;33.56;102097.31;5014743;28;46921;-73
2021/10/22 11:11:04;;;;;;;;;4.00;3.50;;;;;25.41;34.26;102089.16;5035130;28;45500;-73
2021/10/22 11:13:42;;;;;;;;;2.00;2.00;;;;;25.08;34.10;102078.56;5035287;28;45313;-73
2021/10/22 11:16:24;;;;;;;;;3.25;3.00;;;;;24.74;34.28;102078.59;5017814;28;45509;-72
2021/10/22 11:19:35;;;;;;;;;2.50;1.75;;;;;24.41;34.58;102082.19;5034598;28;46248;-73
2021/10/22 11:22:22;;;;;;;;;4.75;2.00;;;;;24.09;35.33;102084.72;4992263;28;45409;-72
2021/10/22 11:24:48;;;;;;;;;3.00;1.25;;;;;24.08;35.46;102085.72;4992534;28;45435;-72
2021/10/22 11:27:17;;;;;;;;;2.50;1.00;;;;;24.04;35.34;102089.59;4989700;28;45954;-74
2021/10/22 11:29:50;;;;;;;;;0.00;0.00;;;;;23.90;34.94;102082.63;4987920;28;45519;-73